Pagrindinis puslapis
METAR-TAF:

METAR-TAF

Oro uostai :

Heidrun, Norvegija

platuma: 65-19-30N, ilguma: 007-19-36E, Aukštis: 0 m

Dabartinis oras

Ataskaita buvo paskelbta 38 minutes, ne 22:20 UTC
Vėjas 23 kt iš Pietų/Pietvakarių
Temperatūra 12°C
Drėgmė 94%
Slėgis 1008 hPa
Matomumas 10 km arba daugiau
Mažai debesys ne aukštis 1500 ft
Išsisklaidę debesys ne aukštis 15000 ft

METAR: ENHE 022220Z 20023KT 9999 FEW015 SCT150 12/11 Q1008 W///S3

Laikas: 00:58 (22:58 UTC)

Prognozė

Ataskaita buvo paskelbta 2 valandos ir 58 minutes, ne 20:00 UTC
Prognozė galioja nuo 02 metu 21 UTC su 03 metu 06 UTC
Vėjas 20 kt iš Pietų/Pietvakarių
Matomumas 10 km arba daugiau
Mažai debesys ne aukštis 1500 ft
Su prošvaistėmis ne aukštis 8000 ft
Tikimybė 40% :
Laikinai
nuo 02 metu 21 UTC su 03 metu 01 UTC
Su prošvaistėmis ne aukštis 1400 ft

TAF: ENHE 022000Z 0221/0306 20020KT 9999 FEW015 BKN080 PROB40 TEMPO 0221/0301 BKN014

Orai ataskaitas ir orų prognozės (METAR, TAF).

turimą stotys yra geltonos ir raudonos taškus žemėlapyje.

Perkelti pele per norėdami pamatyti stoties vardą.

Tada spustelėkite, norėdami matyti oro stebėjimo ir prognozės.

Norėdami pakeisti žemėlapį: spustelėkite ant žalios mygtukų su juodo kryžiaus žemyn,; žalią mygtuką su brūkšneliu, jei norite nutolinti; arba žalių rodyklių gretimoms žemėlapius.


METAR-TAF: